Aviation Digital Data Service (ADDS)

Output produced by TAFs form (1109 UTC 23 July 2016)
found at http://aviationweather.gov/adds/tafs/
 
KGJT 230538Z 2306/2406 12010KT P6SM VCSH SCT120 
     FM230800 11012KT P6SM SCT120 
     FM231700 15005KT P6SM SCT130 
     FM232000 28007KT P6SM FEW130 
     FM240200 10006KT P6SM SCT150